Time;durP1;ratioP1;P1;durP2;ratioP2;P2;SDS_P1;SDS_P2;PMS_P1;PMS_P2;Temp;Humidity;BMP_temperature;BMP_pressure;BME280_temperature;BME280_humidity;BME280_pressure;Samples;Min_cycle;Max_cycle;Signal;HPM_P1;HPM_P2
2023/03/19 00:00:11;;;;;;;7.30;5.60;;;;;;;4.15;71.05;95394.97;5033303;28;20458;-83
2023/03/19 00:02:39;;;;;;;8.03;6.00;;;;;;;4.18;71.11;95402.59;4999052;28;20446;-82
2023/03/19 00:05:07;;;;;;;9.20;5.80;;;;;;;4.17;70.34;95406.09;5033091;28;20482;-82
2023/03/19 00:07:33;;;;;;;10.23;6.23;;;;;;;4.19;71.11;95398.25;5033059;28;20500;-81
2023/03/19 00:10:00;;;;;;;7.00;5.90;;;;;;;4.15;71.39;95397.56;5033302;28;20458;-82
2023/03/19 00:12:27;;;;;;;5.40;4.90;;;;;;;4.18;71.20;95392.22;5033093;28;20865;-81
2023/03/19 00:14:54;;;;;;;10.00;6.40;;;;;;;4.18;70.30;95392.22;5032903;28;20446;-82
2023/03/19 00:17:21;;;;;;;7.23;6.10;;;;;;;4.19;70.18;95387.84;5033139;28;20445;-81
2023/03/19 00:19:49;;;;;;;6.07;5.03;;;;;;;4.20;69.77;95389.53;5033183;28;20450;-81
2023/03/19 00:22:16;;;;;;;7.03;5.10;;;;;;;4.18;70.64;95381.81;5032914;28;20516;-83
2023/03/19 00:24:43;;;;;;;9.43;5.70;;;;;;;4.15;70.21;95384.56;5032542;28;20543;-80
2023/03/19 00:27:10;;;;;;;7.10;5.40;;;;;;;4.11;70.52;95375.28;5033044;28;20472;-82
2023/03/19 00:29:37;;;;;;;8.13;5.60;;;;;;;4.05;71.53;95378.19;4998201;28;20599;-81
2023/03/19 00:32:05;;;;;;;9.10;5.60;;;;;;;4.07;72.05;95376.34;5032650;28;21162;-81
2023/03/19 00:34:31;;;;;;;6.00;5.13;;;;;;;4.04;71.74;95373.88;5033091;28;20450;-82
2023/03/19 00:37:00;;;;;;;5.73;5.13;;;;;;;4.01;71.18;95367.09;5032006;28;20481;-82
2023/03/19 00:39:26;;;;;;;7.97;5.57;;;;;;;3.95;71.67;95364.81;5032540;28;20458;-83
2023/03/19 00:41:53;;;;;;;10.80;6.03;;;;;;;3.96;71.88;95366.50;5032718;28;20446;-81
2023/03/19 00:44:20;;;;;;;8.07;5.37;;;;;;;3.95;72.73;95375.22;5032704;28;20454;-82
2023/03/19 00:46:47;;;;;;;8.07;5.90;;;;;;;3.94;72.53;95367.50;5032340;28;20934;-81
2023/03/19 00:49:14;;;;;;;7.57;5.63;;;;;;;3.90;71.53;95363.38;5032400;28;20929;-81
2023/03/19 00:51:42;;;;;;;5.70;5.10;;;;;;;3.92;71.38;95358.94;5032356;28;20441;-81
2023/03/19 00:54:14;;;;;;;7.97;5.73;;;;;;;3.89;71.45;95362.53;5031963;28;20492;-81
2023/03/19 00:56:40;;;;;;;8.00;6.03;;;;;;;3.87;71.80;95355.75;5032366;28;20875;-81
2023/03/19 00:59:07;;;;;;;6.40;5.10;;;;;;;3.82;71.87;95360.34;5032409;28;20478;-83
2023/03/19 01:01:34;;;;;;;6.23;5.63;;;;;;;3.83;71.94;95359.44;5032497;28;20449;-82
2023/03/19 01:04:01;;;;;;;9.47;6.17;;;;;;;3.85;72.65;95360.19;5032362;28;20492;-82
2023/03/19 01:06:28;;;;;;;8.10;5.30;;;;;;;3.87;72.19;95360.94;5032208;28;20482;-82
2023/03/19 01:08:55;;;;;;;14.33;5.60;;;;;;;3.91;72.18;95365.06;5032029;28;20964;-83
2023/03/19 01:11:23;;;;;;;7.07;5.30;;;;;;;3.89;71.57;95359.94;5032077;28;20462;-82
2023/03/19 01:13:50;;;;;;;8.13;5.63;;;;;;;3.84;72.63;95353.31;5031892;28;20962;-82
2023/03/19 01:16:17;;;;;;;5.50;4.90;;;;;;;3.89;72.09;95353.91;5032334;28;20449;-81
2023/03/19 01:18:43;;;;;;;7.23;5.50;;;;;;;3.89;72.09;95353.91;5032057;28;20449;-81
2023/03/19 01:21:10;;;;;;;9.53;6.53;;;;;;;3.90;71.56;95355.59;5032263;28;20840;-81
2023/03/19 01:23:37;;;;;;;13.43;6.30;;;;;;;3.93;71.87;95360.63;5031863;28;20988;-82
2023/03/19 01:26:04;;;;;;;6.13;5.13;;;;;;;3.91;71.93;95354.69;5032106;28;20892;-82
2023/03/19 01:28:32;;;;;;;6.60;5.27;;;;;;;3.88;72.45;95349.66;5031967;28;20533;-82
2023/03/19 01:31:00;;;;;;;5.63;4.57;;;;;;;3.84;72.03;95340.34;5032482;28;20445;-81
2023/03/19 01:33:27;;;;;;;10.20;5.27;;;;;;;3.79;72.05;95338.00;5031840;28;20438;-81
2023/03/19 01:35:56;;;;;;;5.93;5.20;;;;;;;3.88;72.03;95344.44;5032081;28;20474;-81
2023/03/19 01:38:24;;;;;;;7.33;5.67;;;;;;;3.89;72.42;95339.19;5032056;28;20855;-82
2023/03/19 01:40:51;;;;;;;6.17;5.60;;;;;;;3.85;72.23;95345.44;5031955;28;21010;-81
2023/03/19 01:43:20;;;;;;;8.77;6.70;;;;;;;3.83;72.61;95333.47;5031821;28;20450;-82
2023/03/19 01:45:51;;;;;;;8.73;6.37;;;;;;;3.85;72.33;95349.81;5031817;28;20524;-81
2023/03/19 01:48:25;;;;;;;8.60;6.80;;;;;;;3.80;72.53;95344.84;5032902;28;20446;-81
2023/03/19 01:50:54;;;;;;;11.80;6.00;;;;;;;3.74;72.53;95338.19;5036186;28;20441;-82
2023/03/19 01:53:23;;;;;;;9.83;7.20;;;;;;;3.68;71.99;95348.88;5035894;28;20854;-81
2023/03/19 01:55:52;;;;;;;13.60;9.80;;;;;;;3.64;72.12;95343.94;5036264;28;20468;-81
2023/03/19 01:58:19;;;;;;;16.40;9.97;;;;;;;3.60;71.62;95348.44;5035805;28;20453;-81
2023/03/19 02:00:46;;;;;;;16.87;8.77;;;;;;;3.62;72.21;95346.63;5035531;28;20438;-81
2023/03/19 02:03:14;;;;;;;14.80;9.23;;;;;;;3.63;71.38;95355.25;5035678;28;20438;-83
2023/03/19 02:05:44;;;;;;;16.23;8.37;;;;;;;3.57;71.69;95351.19;5035305;28;20485;-81
2023/03/19 02:08:14;;;;;;;18.40;10.10;;;;;;;3.39;72.38;95352.94;5035811;28;20457;-82
2023/03/19 02:10:42;;;;;;;13.80;9.13;;;;;;;3.36;72.92;95355.69;5035585;28;20445;-82
2023/03/19 02:13:09;;;;;;;15.40;10.57;;;;;;;3.32;73.85;95351.56;5000870;28;20444;-82
2023/03/19 02:15:36;;;;;;;18.20;11.83;;;;;;;3.15;73.76;95351.53;5035289;28;20445;-83
2023/03/19 02:18:02;;;;;;;20.07;11.80;;;;;;;3.02;74.59;95346.13;5035556;28;20454;-82
2023/03/19 02:20:34;;;;;;;19.60;12.77;;;;;;;3.08;75.01;95358.78;5000215;28;20450;-82
2023/03/19 02:23:09;;;;;;;16.13;12.10;;;;;;;3.09;74.49;95357.03;5035336;28;20454;-82
2023/03/19 02:25:45;;;;;;;20.60;14.33;;;;;;;3.07;74.76;95357.09;5035021;28;20504;-82
2023/03/19 02:28:17;;;;;;;20.20;14.67;;;;;;;3.07;75.05;95358.84;5035006;28;20480;-81
2023/03/19 02:30:45;;;;;;;23.20;12.40;;;;;;;3.01;75.13;95359.16;5035097;28;20552;-81
2023/03/19 02:33:13;;;;;;;17.57;12.23;;;;;;;3.06;75.13;95363.19;5035125;28;20953;-82
2023/03/19 02:35:41;;;;;;;17.80;10.40;;;;;;;3.11;74.76;95363.81;5034874;28;20496;-82
2023/03/19 02:38:08;;;;;;;19.60;11.53;;;;;;;3.15;75.10;95351.53;5035248;28;20434;-83
2023/03/19 02:40:39;;;;;;;14.37;9.90;;;;;;;3.11;74.83;95361.22;5035076;28;20449;-81
2023/03/19 02:43:06;;;;;;;14.60;9.87;;;;;;;3.11;74.76;95356.03;5035041;28;20450;-82
2023/03/19 02:45:34;;;;;;;11.83;8.80;;;;;;;3.13;74.91;95348.19;5034361;28;20977;-81
2023/03/19 02:48:01;;;;;;;12.80;8.03;;;;;;;3.10;75.15;95351.78;5034659;28;20957;-81
2023/03/19 02:50:28;;;;;;;15.10;8.60;;;;;;;3.17;75.17;95346.28;5034778;28;20450;-82
2023/03/19 02:52:55;;;;;;;10.90;9.33;;;;;;;3.17;74.88;95344.53;5016277;28;20492;-82
2023/03/19 02:55:22;;;;;;;8.60;7.27;;;;;;;3.17;75.61;95347.13;5034920;28;20548;-81
2023/03/19 02:57:49;;;;;;;10.67;7.47;;;;;;;3.16;76.13;95352.38;5034338;28;20449;-82
2023/03/19 03:00:17;;;;;;;9.63;6.83;;;;;;;3.18;75.28;95346.22;5034590;28;20469;-81
2023/03/19 03:02:45;;;;;;;12.13;7.10;;;;;;;3.15;75.20;95338.56;5034583;28;20479;-82
2023/03/19 03:05:13;;;;;;;6.80;6.10;;;;;;;3.19;75.07;95357.44;5034368;28;20482;-82
2023/03/19 03:07:42;;;;;;;11.50;7.27;;;;;;;3.14;75.08;95354.22;5034465;28;20462;-82
2023/03/19 03:10:10;;;;;;;10.87;7.73;;;;;;;3.14;75.25;95362.81;5034389;28;20461;-82
2023/03/19 03:12:37;;;;;;;7.33;6.53;;;;;;;3.14;75.01;95354.22;4966894;28;20859;-81
2023/03/19 03:15:05;;;;;;;12.37;7.10;;;;;;;3.18;74.63;95363.50;5034006;28;20442;-83
2023/03/19 03:17:32;;;;;;;7.80;6.33;;;;;;;3.22;74.59;95367.66;5033893;28;20457;-81
2023/03/19 03:20:00;;;;;;;10.77;6.30;;;;;;;3.19;75.10;95366.06;5034385;28;20458;-82
2023/03/19 03:22:27;;;;;;;10.20;7.30;;;;;;;3.23;74.78;95374.53;5033819;28;20446;-82
2023/03/19 03:24:53;;;;;;;9.47;6.20;;;;;;;3.21;74.73;95374.59;5034104;28;20450;-83
2023/03/19 03:27:20;;;;;;;9.80;6.50;;;;;;;3.03;74.71;95370.28;5033675;28;21016;-82
2023/03/19 03:29:47;;;;;;;14.10;8.50;;;;;;;3.10;74.91;95382.88;5033683;28;20843;-82
2023/03/19 03:32:14;;;;;;;18.00;10.37;;;;;;;3.03;74.89;95378.91;5033988;28;20449;-82
2023/03/19 03:34:41;;;;;;;15.97;9.60;;;;;;;2.95;75.38;95386.22;5033716;28;20449;-83
2023/03/19 03:37:10;;;;;;;10.90;7.90;;;;;;;2.91;75.96;95389.03;5014924;28;20478;-81
2023/03/19 03:39:36;;;;;;;17.03;9.97;;;;;;;2.88;76.18;95383.97;5033469;28;20454;-81
2023/03/19 03:42:04;;;;;;;12.73;8.60;;;;;;;2.83;75.98;95384.19;5033675;28;20446;-81
2023/03/19 03:44:31;;;;;;;16.13;10.20;;;;;;;2.89;75.67;95391.69;5033589;28;20450;-81
2023/03/19 03:46:57;;;;;;;16.73;11.07;;;;;;;2.73;76.07;95395.91;5033439;28;20695;-82
2023/03/19 03:49:24;;;;;;;15.23;9.50;;;;;;;2.57;76.85;95395.75;5033705;28;20941;-81
2023/03/19 03:51:51;;;;;;;12.68;9.70;;;;;;;2.59;77.13;95398.25;5033859;28;20192;-81
2023/03/19 03:54:20;;;;;;;13.20;9.65;;;;;;;2.54;77.77;95393.28;5033327;28;20283;-81
2023/03/19 03:56:48;;;;;;;12.10;9.90;;;;;;;2.63;77.26;95399.81;5033764;28;20288;-81
2023/03/19 03:59:16;;;;;;;16.00;10.43;;;;;;;2.70;77.05;95398.63;5014668;28;20445;-82
2023/03/19 04:01:43;;;;;;;12.77;9.57;;;;;;;2.73;76.69;95401.91;5033776;28;20446;-81
2023/03/19 04:04:10;;;;;;;15.77;9.47;;;;;;;2.80;77.00;95397.28;5033572;28;20450;-83
2023/03/19 04:06:36;;;;;;;17.10;10.50;;;;;;;2.72;77.35;95379.50;5032969;28;20493;-80
2023/03/19 04:09:04;;;;;;;13.23;9.00;;;;;;;2.85;77.02;95391.88;5033379;28;20454;-81
2023/03/19 04:11:32;;;;;;;12.83;8.60;;;;;;;2.88;77.91;95389.97;5032685;28;20533;-84
2023/03/19 04:14:00;;;;;;;10.77;7.50;;;;;;;2.85;76.67;95384.94;5033208;28;20446;-82
2023/03/19 04:16:27;;;;;;;9.93;7.73;;;;;;;2.87;77.25;95388.31;5033228;28;20800;-81
2023/03/19 04:18:54;;;;;;;11.93;6.67;;;;;;;2.82;77.09;95389.44;5032831;28;20512;-81
2023/03/19 04:21:21;;;;;;;14.03;8.43;;;;;;;2.70;77.55;95393.44;5032924;28;20914;-81
2023/03/19 04:23:48;;;;;;;16.40;7.80;;;;;;;2.73;76.78;95385.53;5033211;28;20439;-80
2023/03/19 04:26:17;;;;;;;14.87;8.93;;;;;;;2.73;76.90;95399.31;5033544;28;20482;-81
2023/03/19 04:28:45;;;;;;;15.60;11.90;;;;;;;2.77;77.60;95400.84;5033427;28;20530;-81
2023/03/19 04:31:12;;;;;;;14.93;10.87;;;;;;;2.73;77.19;95395.91;5033386;28;20815;-82
2023/03/19 04:33:39;;;;;;;18.80;11.10;;;;;;;2.68;76.63;95397.88;5032996;28;20453;-82
2023/03/19 04:36:07;;;;;;;13.27;10.75;;;;;;;2.60;76.15;95393.03;5032747;28;20977;-81
2023/03/19 04:38:33;;;;;;;17.20;12.17;;;;;;;2.70;76.41;95407.25;5014389;28;20265;-82
2023/03/19 04:41:00;;;;;;;15.83;10.57;;;;;;;2.70;76.10;95396.88;5032584;28;20795;-81
2023/03/19 04:43:27;;;;;;;19.97;10.50;;;;;;;2.79;76.23;95405.97;5038556;28;20445;-83
2023/03/19 04:45:55;;;;;;;15.73;9.57;;;;;;;2.86;76.50;95412.53;5053483;28;20476;-81
2023/03/19 04:48:24;;;;;;;14.20;10.43;;;;;;;2.98;76.18;95404.22;5054412;28;20425;-83
2023/03/19 04:50:52;;;;;;;15.07;10.57;;;;;;;3.18;75.14;95403.28;5053293;28;20425;-82
2023/03/19 04:53:19;;;;;;;19.00;10.73;;;;;;;3.29;74.49;95410.53;5053572;28;20499;-83
2023/03/19 04:55:46;;;;;;;12.83;9.57;;;;;;;3.33;73.64;95402.53;5053982;28;20515;-83
2023/03/19 04:58:13;;;;;;;18.50;10.23;;;;;;;3.42;73.06;95398.63;5053661;28;20488;-83
2023/03/19 05:00:40;;;;;;;14.90;10.10;;;;;;;3.48;73.71;95406.16;5053590;28;20449;-81
2023/03/19 05:03:08;;;;;;;16.20;10.47;;;;;;;3.66;74.71;95406.97;5053361;28;20441;-81
2023/03/19 05:05:35;;;;;;;13.07;10.87;;;;;;;3.92;73.22;95406.53;5053089;28;20959;-81
2023/03/19 05:08:02;;;;;;;16.73;11.10;;;;;;;4.22;71.08;95396.31;5053849;28;20430;-81
2023/03/19 05:10:29;;;;;;;14.20;12.47;;;;;;;4.81;69.67;95412.28;5053204;28;20453;-80
2023/03/19 05:12:56;;;;;;;13.50;10.90;;;;;;;5.13;68.13;95416.56;5053334;28;20449;-81
2023/03/19 05:15:24;;;;;;;19.20;13.20;;;;;;;5.34;66.33;95405.88;5019498;28;20441;-82
2023/03/19 05:17:51;;;;;;;20.87;16.43;;;;;;;5.45;65.55;95401.75;5055763;28;20461;-80
2023/03/19 05:20:19;;;;;;;20.30;14.13;;;;;;;5.74;65.64;95409.66;5053155;28;20499;-80
2023/03/19 05:22:46;;;;;;;16.87;11.50;;;;;;;6.04;65.05;95410.50;5018665;28;20506;-82
2023/03/19 05:25:13;;;;;;;11.80;8.73;;;;;;;6.42;62.50;95410.03;5057387;28;20484;-82
2023/03/19 05:27:40;;;;;;;15.97;10.10;;;;;;;6.74;60.77;95410.69;5057698;28;20813;-83
2023/03/19 05:30:09;;;;;;;12.90;9.60;;;;;;;7.19;59.37;95408.72;5057486;28;20442;-82
2023/03/19 05:32:37;;;;;;;15.43;10.90;;;;;;;7.74;58.00;95406.84;5057093;28;20932;-81
2023/03/19 05:35:04;;;;;;;16.50;10.27;;;;;;;8.22;55.97;95411.56;5057305;28;20456;-82
2023/03/19 05:37:33;;;;;;;15.60;10.50;;;;;;;8.76;54.26;95408.78;5057930;28;20500;-83
2023/03/19 05:40:00;;;;;;;14.30;12.50;;;;;;;9.14;53.10;95411.31;5057042;28;20435;-82
2023/03/19 05:42:27;;;;;;;19.23;11.47;;;;;;;9.35;52.71;95409.78;5056285;28;20856;-82
2023/03/19 05:44:53;;;;;;;19.00;12.17;;;;;;;9.45;52.44;95412.59;5069873;28;20446;-82
2023/03/19 05:47:20;;;;;;;14.83;11.20;;;;;;;9.58;51.94;95418.63;5075966;28;20479;-84
2023/03/19 05:50:02;;;;;;;11.77;8.90;;;;;;;9.84;52.10;95406.25;5056758;28;20495;-82
2023/03/19 05:52:29;;;;;;;12.40;9.13;;;;;;;10.07;50.59;95396.66;5036742;28;20446;-83
2023/03/19 05:54:58;;;;;;;14.77;9.90;;;;;;;10.35;49.81;95398.06;5037355;28;20839;-84
2023/03/19 05:57:25;;;;;;;14.53;9.87;;;;;;;10.47;49.14;95398.00;5035298;28;20438;-84
2023/03/19 05:59:52;;;;;;;10.00;8.60;;;;;;;10.51;48.00;95394.19;5036655;28;20924;-84
2023/03/19 06:02:19;;;;;;;14.27;10.70;;;;;;;10.17;48.40;95387.16;5036872;28;20441;-83
2023/03/19 06:04:46;;;;;;;13.37;9.93;;;;;;;10.05;49.36;95393.31;5036906;28;20811;-84
2023/03/19 06:07:13;;;;;;;16.07;11.07;;;;;;;10.07;49.17;95396.66;5036502;28;21045;-83
2023/03/19 06:09:39;;;;;;;14.80;11.03;;;;;;;9.79;50.13;95403.94;5036525;28;20450;-82
2023/03/19 06:12:08;;;;;;;17.50;11.80;;;;;;;9.54;51.07;95391.81;5036656;28;20445;-83
2023/03/19 06:14:35;;;;;;;22.73;13.20;;;;;;;9.69;51.03;95402.94;5036627;28;20445;-85
2023/03/19 06:17:02;;;;;;;20.80;12.23;;;;;;;9.73;50.39;95401.78;5036349;28;20974;-84
2023/03/19 06:19:29;;;;;;;19.10;12.40;;;;;;;9.85;51.16;95385.16;5036605;28;20448;-81
2023/03/19 06:21:56;;;;;;;20.30;12.80;;;;;;;10.23;50.31;95398.06;5035951;28;20948;-84
2023/03/19 06:24:23;;;;;;;17.13;13.60;;;;;;;10.54;50.29;95403.59;5001159;28;20476;-83
2023/03/19 06:26:50;;;;;;;21.70;13.63;;;;;;;10.22;48.70;95395.56;5036358;28;20484;-84
2023/03/19 06:29:18;;;;;;;17.47;12.40;;;;;;;10.10;52.00;95407.75;5018003;28;20810;-82
2023/03/19 06:31:45;;;;;;;19.77;11.47;;;;;;;9.76;49.91;95406.78;5036046;28;20442;-82
2023/03/19 06:34:11;;;;;;;17.47;10.87;;;;;;;9.46;51.53;95412.47;5031968;28;20449;-82
2023/03/19 06:36:38;;;;;;;23.10;11.20;;;;;;;9.48;51.98;95401.88;5034850;28;21002;-82
2023/03/19 06:39:05;;;;;;;17.77;10.67;;;;;;;9.06;52.38;95409.25;5001702;28;20448;-84
2023/03/19 06:41:32;;;;;;;17.60;12.33;;;;;;;9.43;53.29;95412.69;5016001;28;20948;-80
2023/03/19 06:43:58;;;;;;;16.77;11.27;;;;;;;9.69;51.80;95423.91;5021165;28;20483;-80
2023/03/19 06:46:27;;;;;;;16.43;10.70;;;;;;;9.66;50.91;95421.53;5035575;28;20473;-83
2023/03/19 06:48:53;;;;;;;15.50;10.50;;;;;;;9.63;51.68;95419.13;5035898;28;20457;-80
2023/03/19 06:51:22;;;;;;;13.50;10.33;;;;;;;10.02;51.72;95415.34;5035981;28;20539;-81
2023/03/19 06:53:49;;;;;;;14.20;11.10;;;;;;;10.29;49.58;95416.91;5035865;28;20465;-81
2023/03/19 06:56:15;;;;;;;14.70;9.07;;;;;;;10.37;49.92;95425.03;5035965;28;20479;-81
2023/03/19 06:58:42;;;;;;;12.87;10.43;;;;;;;10.42;49.88;95413.25;5035821;28;20462;-81
2023/03/19 07:01:09;;;;;;;13.23;11.33;;;;;;;10.67;49.82;95427.94;5035841;28;20445;-81
2023/03/19 07:03:37;;;;;;;14.77;10.13;;;;;;;10.61;48.91;95432.81;5035658;28;20450;-80
2023/03/19 07:06:06;;;;;;;17.27;10.33;;;;;;;10.77;48.78;95417.59;5035604;28;20465;-80
2023/03/19 07:08:33;;;;;;;17.23;10.97;;;;;;;10.85;49.60;95436.19;5001684;28;20547;-82
2023/03/19 07:11:04;;;;;;;17.70;10.00;;;;;;;10.18;48.70;95426.38;5035703;28;20760;-82
2023/03/19 07:13:31;;;;;;;13.50;9.43;;;;;;;10.36;50.64;95420.72;5034264;28;20492;-82
2023/03/19 07:15:58;;;;;;;14.20;9.23;;;;;;;10.38;48.93;95427.53;5035292;28;20429;-82
2023/03/19 07:18:25;;;;;;;12.37;8.50;;;;;;;10.50;48.58;95423.16;5035445;28;20458;-83
2023/03/19 07:20:54;;;;;;;14.97;9.00;;;;;;;10.81;47.72;95425.09;5035143;28;20438;-82
2023/03/19 07:23:20;;;;;;;15.70;8.40;;;;;;;10.97;47.66;95424.72;5033961;28;20501;-83
2023/03/19 07:25:47;;;;;;;10.13;9.03;;;;;;;10.77;47.37;95426.28;5033998;28;20469;-82
2023/03/19 07:28:14;;;;;;;11.70;9.30;;;;;;;10.91;48.50;95427.00;5034214;28;20482;-84
2023/03/19 07:30:41;;;;;;;11.87;8.20;;;;;;;11.08;47.29;95421.28;5014945;28;20434;-82
2023/03/19 07:33:08;;;;;;;11.70;8.70;;;;;;;10.91;47.38;95419.97;5033919;28;20438;-83
2023/03/19 07:35:35;;;;;;;15.87;9.87;;;;;;;10.89;48.71;95419.25;5033955;28;20474;-84
2023/03/19 07:38:03;;;;;;;9.83;8.60;;;;;;;11.10;49.29;95414.97;5034004;28;20540;-82
2023/03/19 07:40:30;;;;;;;9.40;7.73;;;;;;;11.04;45.84;95412.00;5033432;28;21011;-83
2023/03/19 07:42:57;;;;;;;11.97;8.30;;;;;;;11.00;48.02;95424.53;5033658;28;20457;-83
2023/03/19 07:45:24;;;;;;;11.37;8.33;;;;;;;11.17;47.09;95415.31;5014742;28;20442;-83
2023/03/19 07:47:51;;;;;;;10.60;7.93;;;;;;;11.16;46.44;95424.97;5033070;28;20482;-82
2023/03/19 07:50:18;;;;;;;10.43;7.77;;;;;;;11.02;46.91;95417.34;5033500;28;20447;-82
2023/03/19 07:52:46;;;;;;;15.43;9.43;;;;;;;10.92;47.90;95415.56;5033404;28;20443;-82
2023/03/19 07:55:14;;;;;;;11.13;8.20;;;;;;;11.03;48.24;95403.28;5033132;28;20489;-82
2023/03/19 07:57:41;;;;;;;12.03;8.90;;;;;;;10.83;49.23;95417.09;5033679;28;20450;-82
2023/03/19 08:00:09;;;;;;;10.93;8.70;;;;;;;11.05;49.66;95421.53;5033267;28;20443;-82
2023/03/19 08:02:36;;;;;;;16.53;10.23;;;;;;;11.12;48.71;95414.84;4998453;28;20442;-81
2023/03/19 08:05:03;;;;;;;12.50;9.80;;;;;;;10.96;48.57;95417.81;5033794;28;20442;-83
2023/03/19 08:07:30;;;;;;;10.60;9.10;;;;;;;11.24;48.05;95418.28;5033551;28;20482;-82
2023/03/19 08:09:57;;;;;;;14.10;10.10;;;;;;;11.44;46.58;95412.28;5033452;28;20880;-83
2023/03/19 08:12:28;;;;;;;17.53;11.07;;;;;;;11.34;47.93;95417.44;5032927;28;20446;-82
2023/03/19 08:14:55;;;;;;;13.83;10.30;;;;;;;11.33;47.89;95420.19;5033321;28;20809;-81
2023/03/19 08:17:22;;;;;;;16.50;10.80;;;;;;;11.29;46.84;95416.97;5033223;28;20462;-83
2023/03/19 08:19:52;;;;;;;12.97;9.30;;;;;;;11.41;46.16;95417.78;5033033;28;20449;-82
2023/03/19 08:22:18;;;;;;;11.10;9.27;;;;;;;11.67;45.94;95418.34;5032864;28;20465;-81
2023/03/19 08:24:45;;;;;;;15.90;9.50;;;;;;;11.80;45.10;95411.13;5032943;28;20817;-82
2023/03/19 08:27:12;;;;;;;13.97;10.00;;;;;;;11.68;45.92;95415.59;5032645;28;20486;-82
2023/03/19 08:29:40;;;;;;;12.90;8.87;;;;;;;11.84;44.70;95414.34;5032991;28;20450;-83
2023/03/19 08:32:08;;;;;;;13.80;9.57;;;;;;;11.95;44.91;95411.69;5014381;28;20447;-84
2023/03/19 08:34:35;;;;;;;11.10;8.70;;;;;;;11.98;43.52;95411.44;4997924;28;20447;-83
2023/03/19 08:37:02;;;;;;;12.63;9.10;;;;;;;12.07;43.71;95406.25;5032466;28;20474;-82
2023/03/19 08:39:29;;;;;;;12.90;9.03;;;;;;;12.31;43.56;95408.66;5032462;28;20458;-82
2023/03/19 08:41:56;;;;;;;14.20;9.33;;;;;;;12.37;42.38;95399.41;5033025;28;20446;-81
2023/03/19 08:44:23;;;;;;;11.43;9.07;;;;;;;12.28;42.31;95395.75;5032427;28;20450;-82
2023/03/19 08:46:51;;;;;;;12.97;9.43;;;;;;;12.20;42.72;95390.31;5032604;28;20447;-82
2023/03/19 08:49:18;;;;;;;14.10;8.90;;;;;;;12.13;43.62;95383.88;5032561;28;20450;-82
2023/03/19 08:51:45;;;;;;;13.33;9.23;;;;;;;12.35;43.41;95390.81;5032563;28;20461;-82
2023/03/19 08:54:12;;;;;;;13.03;9.37;;;;;;;12.52;42.82;95390.25;5032267;28;20453;-82
2023/03/19 08:56:39;;;;;;;14.80;10.47;;;;;;;12.68;43.56;95384.50;5013986;28;20889;-82
2023/03/19 08:59:06;;;;;;;49.87;28.60;;;;;;;12.64;43.89;95383.09;5032286;28;20800;-83
2023/03/19 09:01:33;;;;;;;18.00;11.57;;;;;;;12.62;43.49;95375.31;5032359;28;20467;-83
2023/03/19 09:04:02;;;;;;;116.30;59.97;;;;;;;12.44;42.90;95373.44;5032775;28;20444;-83
2023/03/19 09:06:29;;;;;;;103.00;55.67;;;;;;;12.58;43.87;95373.09;5032334;28;21017;-82
2023/03/19 09:08:56;;;;;;;17.03;12.23;;;;;;;12.38;43.17;95357.16;5033680;28;20818;-83
2023/03/19 09:11:23;;;;;;;13.77;9.27;;;;;;;12.53;42.98;95359.47;5033754;28;20443;-83
2023/03/19 09:13:49;;;;;;;14.70;10.43;;;;;;;12.77;43.07;95367.94;5033648;28;20439;-83
2023/03/19 09:16:17;;;;;;;267.30;130.77;;;;;;;12.76;42.12;95363.63;5030824;28;20447;-79
2023/03/19 09:18:44;;;;;;;52.50;29.83;;;;;;;12.56;43.20;95362.69;5015903;28;20476;-79
2023/03/19 09:21:12;;;;;;;66.00;35.03;;;;;;;12.68;43.01;95359.00;5013659;28;20444;-80
2023/03/19 09:23:39;;;;;;;16.43;11.67;;;;;;;12.70;42.71;95358.84;5014124;28;20863;-81
2023/03/19 09:26:05;;;;;;;11.43;9.93;;;;;;;12.80;42.36;95357.13;5013514;28;20443;-80
2023/03/19 09:28:32;;;;;;;22.07;14.17;;;;;;;12.89;42.23;95355.50;5012469;28;20488;-82
2023/03/19 09:31:05;;;;;;;17.23;10.10;;;;;;;12.87;42.24;95363.53;5013084;28;20449;-84
2023/03/19 09:33:33;;;;;;;31.77;16.30;;;;;;;12.73;42.45;95349.88;5014109;28;20524;-83
2023/03/19 09:36:00;;;;;;;18.13;9.27;;;;;;;12.98;42.20;95357.31;5013709;28;20484;-83
2023/03/19 09:38:28;;;;;;;25.10;13.47;;;;;;;12.97;42.25;95360.91;5013690;28;20434;-84
2023/03/19 09:41:07;;;;;;;21.20;12.67;;;;;;;12.97;41.88;95361.75;5013530;28;20451;-80
2023/03/19 09:43:44;;;;;;;16.93;9.67;;;;;;;13.11;42.88;95350.03;5031192;28;20442;-83
2023/03/19 09:46:16;;;;;;;16.00;10.23;;;;;;;13.32;41.45;95342.06;5033436;28;20436;-84
2023/03/19 09:48:49;;;;;;;11.00;8.60;;;;;;;13.38;40.26;95346.81;5031150;28;20494;-82
2023/03/19 09:51:19;;;;;;;13.90;10.07;;;;;;;13.49;41.30;95348.47;5013654;28;20442;-82
2023/03/19 09:53:54;;;;;;;12.30;9.50;;;;;;;13.52;42.76;95349.03;5013270;28;21216;-81
2023/03/19 09:56:20;;;;;;;11.90;9.13;;;;;;;13.52;39.26;95338.47;5013146;28;20481;-82
2023/03/19 09:58:47;;;;;;;13.60;9.80;;;;;;;13.24;39.38;95328.72;5013480;28;20456;-84
2023/03/19 10:01:24;;;;;;;30.23;8.73;;;;;;;13.43;44.64;95328.75;5013731;28;20437;-84
2023/03/19 10:04:13;;;;;;;11.23;8.93;;;;;;;13.54;39.52;95330.44;5013290;28;20453;-79
2023/03/19 10:06:40;;;;;;;10.53;9.50;;;;;;;13.44;40.29;95330.44;5010564;28;20454;-87
2023/03/19 10:09:30;;;;;;;9.70;8.40;;;;;;;13.51;40.12;95326.28;4980037;28;20481;-87
2023/03/19 10:12:16;;;;;;;16.27;8.70;;;;;;;13.36;39.39;95319.75;5017168;28;20499;-85
2023/03/19 10:14:59;;;;;;;20.00;10.77;;;;;;;13.05;40.42;95321.59;5017846;28;20440;-85
2023/03/19 10:17:31;;;;;;;17.60;10.43;;;;;;;12.97;40.67;95314.34;5016818;28;20484;-85
2023/03/19 10:20:03;;;;;;;15.73;8.90;;;;;;;13.21;41.21;95307.91;5017236;28;20474;-89
2023/03/19 10:22:37;;;;;;;12.70;8.87;;;;;;;13.40;42.19;95309.75;5016810;28;20465;-86
2023/03/19 10:25:10;;;;;;;17.30;10.33;;;;;;;13.58;42.61;95303.66;5016380;28;20459;-83
2023/03/19 10:27:38;;;;;;;14.43;8.53;;;;;;;13.60;41.46;95299.09;5016202;28;20484;-81
2023/03/19 10:30:14;;;;;;;10.73;9.00;;;;;;;13.58;40.38;95298.38;5016684;28;20438;-81
2023/03/19 10:32:43;;;;;;;11.00;8.67;;;;;;;13.61;40.91;95279.66;4982555;28;20445;-81
2023/03/19 10:35:18;;;;;;;11.63;8.77;;;;;;;13.40;40.90;95276.31;5016531;28;20476;-84
2023/03/19 10:37:45;;;;;;;22.07;10.83;;;;;;;13.47;41.04;95273.97;5016120;28;20447;-81
2023/03/19 10:40:22;;;;;;;16.13;10.47;;;;;;;13.50;40.25;95277.16;5016468;28;20438;-83
2023/03/19 10:43:06;;;;;;;15.70;10.03;;;;;;;13.58;42.58;95274.63;5016074;28;20434;-83
2023/03/19 10:45:35;;;;;;;14.43;11.60;;;;;;;13.51;41.15;95268.25;5016407;28;20499;-86
2023/03/19 10:48:04;;;;;;;18.20;10.80;;;;;;;13.46;40.64;95265.22;5016261;28;20481;-84
2023/03/19 10:50:35;;;;;;;19.97;11.33;;;;;;;13.41;40.80;95256.91;5015816;28;20530;-81
2023/03/19 10:53:07;;;;;;;20.93;11.80;;;;;;;13.44;41.15;95246.06;5028805;28;20533;-83
2023/03/19 10:55:35;;;;;;;22.70;11.97;;;;;;;13.48;42.36;95250.09;5000717;28;21360;-85
2023/03/19 10:58:06;;;;;;;13.80;10.80;;;;;;;13.59;41.85;95244.69;5035758;28;20464;-82
2023/03/19 11:00:34;;;;;;;14.10;10.67;;;;;;;13.70;40.68;95248.16;5035518;28;21003;-83
2023/03/19 11:03:04;;;;;;;11.63;9.30;;;;;;;13.74;40.20;95239.81;5036527;28;20438;-83
2023/03/19 11:08:56;;;;;;;14.77;10.23;;;;;;;13.80;44.14;95235.78;5035366;28;20471;-81
2023/03/19 11:11:26;;;;;;;13.43;9.87;;;;;;;13.74;41.23;95212.59;5036201;28;20799;-84
2023/03/19 11:13:53;;;;;;;16.93;14.13;;;;;;;13.78;40.40;95227.16;5035721;28;20431;-80
2023/03/19 11:16:20;;;;;;;17.40;11.00;;;;;;;13.91;41.34;95206.63;5035202;28;20456;-82
2023/03/19 11:18:49;;;;;;;12.20;8.87;;;;;;;13.92;40.77;95209.09;5034801;28;20458;-83
2023/03/19 11:21:24;;;;;;;13.47;10.13;;;;;;;13.91;39.66;95207.44;5035297;28;20463;-81
2023/03/19 11:24:01;;;;;;;11.50;9.10;;;;;;;13.94;39.79;95201.06;5035405;28;20433;-82
2023/03/19 11:26:30;;;;;;;16.80;9.80;;;;;;;14.00;39.71;95200.47;5034945;28;20984;-83
2023/03/19 11:29:02;;;;;;;12.60;10.13;;;;;;;14.01;40.02;95194.22;5034975;28;20497;-81
2023/03/19 11:31:37;;;;;;;13.67;9.53;;;;;;;14.12;41.13;95180.84;5034980;28;20429;-82
2023/03/19 11:34:26;;;;;;;13.50;8.70;;;;;;;14.18;39.46;95182.09;5034421;28;21027;-81